sensor_id;sensor_type;location;lat;lon;timestamp;P1;durP1;ratioP1;P2;durP2;ratioP2
47239;SDS011;32978;53.586;10.052;2022-09-23T00:00:45;19.08;;;17.98;;
47239;SDS011;32978;53.586;10.052;2022-09-23T00:05:41;19.48;;;18.23;;
47239;SDS011;32978;53.586;10.052;2022-09-23T00:10:38;18.02;;;16.83;;
47239;SDS011;32978;53.586;10.052;2022-09-23T00:15:37;19.85;;;18.65;;
47239;SDS011;32978;53.586;10.052;2022-09-23T00:20:34;20.23;;;19.02;;
47239;SDS011;32978;53.586;10.052;2022-09-23T00:25:30;20.23;;;18.92;;
47239;SDS011;32978;53.586;10.052;2022-09-23T00:30:27;20.17;;;19.08;;
47239;SDS011;32978;53.586;10.052;2022-09-23T00:35:23;17.27;;;16.27;;
47239;SDS011;32978;53.586;10.052;2022-09-23T00:40:19;20.40;;;18.90;;
47239;SDS011;32978;53.586;10.052;2022-09-23T00:45:16;19.55;;;18.45;;
47239;SDS011;32978;53.586;10.052;2022-09-23T00:55:16;18.27;;;16.98;;
47239;SDS011;32978;53.586;10.052;2022-09-23T01:00:13;17.88;;;16.83;;
47239;SDS011;32978;53.586;10.052;2022-09-23T01:05:09;21.00;;;19.60;;
47239;SDS011;32978;53.586;10.052;2022-09-23T01:10:06;17.95;;;16.85;;
47239;SDS011;32978;53.586;10.052;2022-09-23T01:25:29;18.73;;;17.42;;
47239;SDS011;32978;53.586;10.052;2022-09-23T01:35:28;17.83;;;16.83;;
47239;SDS011;32978;53.586;10.052;2022-09-23T01:45:33;17.80;;;16.80;;
47239;SDS011;32978;53.586;10.052;2022-09-23T01:50:32;17.08;;;16.00;;
47239;SDS011;32978;53.586;10.052;2022-09-23T01:55:53;19.85;;;18.75;;
47239;SDS011;32978;53.586;10.052;2022-09-23T02:00:59;18.73;;;17.52;;
47239;SDS011;32978;53.586;10.052;2022-09-23T02:06:03;17.52;;;16.33;;
47239;SDS011;32978;53.586;10.052;2022-09-23T02:11:08;17.70;;;16.50;;
47239;SDS011;32978;53.586;10.052;2022-09-23T02:16:07;18.27;;;17.08;;
47239;SDS011;32978;53.586;10.052;2022-09-23T02:21:07;18.05;;;16.95;;
47239;SDS011;32978;53.586;10.052;2022-09-23T02:26:05;17.83;;;16.83;;
47239;SDS011;32978;53.586;10.052;2022-09-23T02:31:05;18.55;;;17.33;;
47239;SDS011;32978;53.586;10.052;2022-09-23T02:36:11;15.65;;;14.75;;
47239;SDS011;32978;53.586;10.052;2022-09-23T02:41:19;16.75;;;15.65;;
47239;SDS011;32978;53.586;10.052;2022-09-23T02:46:17;15.88;;;14.88;;
47239;SDS011;32978;53.586;10.052;2022-09-23T02:51:15;16.55;;;15.55;;
47239;SDS011;32978;53.586;10.052;2022-09-23T02:56:12;18.13;;;16.75;;
47239;SDS011;32978;53.586;10.052;2022-09-23T03:01:23;16.23;;;15.23;;
47239;SDS011;32978;53.586;10.052;2022-09-23T03:06:31;17.60;;;16.60;;
47239;SDS011;32978;53.586;10.052;2022-09-23T03:11:33;18.30;;;17.20;;
47239;SDS011;32978;53.586;10.052;2022-09-23T03:21:40;19.05;;;17.80;;
47239;SDS011;32978;53.586;10.052;2022-09-23T03:26:38;20.38;;;18.85;;
47239;SDS011;32978;53.586;10.052;2022-09-23T03:31:36;21.15;;;19.75;;
47239;SDS011;32978;53.586;10.052;2022-09-23T03:36:35;20.15;;;18.70;;
47239;SDS011;32978;53.586;10.052;2022-09-23T03:41:47;19.13;;;17.92;;
47239;SDS011;32978;53.586;10.052;2022-09-23T03:46:45;19.60;;;18.20;;
47239;SDS011;32978;53.586;10.052;2022-09-23T03:51:44;20.10;;;18.85;;
47239;SDS011;32978;53.586;10.052;2022-09-23T03:56:41;22.13;;;19.98;;
47239;SDS011;32978;53.586;10.052;2022-09-23T04:01:37;19.38;;;18.02;;
47239;SDS011;32978;53.586;10.052;2022-09-23T04:06:33;19.63;;;18.33;;
47239;SDS011;32978;53.586;10.052;2022-09-23T04:11:29;18.10;;;16.90;;
47239;SDS011;32978;53.586;10.052;2022-09-23T04:16:26;19.15;;;17.20;;
47239;SDS011;32978;53.586;10.052;2022-09-23T04:21:22;17.75;;;16.65;;
47239;SDS011;32978;53.586;10.052;2022-09-23T04:26:18;17.55;;;16.27;;
47239;SDS011;32978;53.586;10.052;2022-09-23T04:31:15;16.83;;;15.77;;
47239;SDS011;32978;53.586;10.052;2022-09-23T04:36:11;18.25;;;17.15;;
47239;SDS011;32978;53.586;10.052;2022-09-23T04:41:08;18.23;;;16.92;;
47239;SDS011;32978;53.586;10.052;2022-09-23T04:46:06;17.40;;;16.13;;
47239;SDS011;32978;53.586;10.052;2022-09-23T04:51:05;19.98;;;18.63;;
47239;SDS011;32978;53.586;10.052;2022-09-23T04:56:06;18.80;;;17.45;;
47239;SDS011;32978;53.586;10.052;2022-09-23T05:01:22;18.95;;;17.45;;
47239;SDS011;32978;53.586;10.052;2022-09-23T05:06:22;19.27;;;18.10;;
47239;SDS011;32978;53.586;10.052;2022-09-23T05:11:19;19.55;;;18.35;;
47239;SDS011;32978;53.586;10.052;2022-09-23T05:16:15;19.67;;;18.42;;
47239;SDS011;32978;53.586;10.052;2022-09-23T05:21:13;18.98;;;17.77;;
47239;SDS011;32978;53.586;10.052;2022-09-23T05:26:10;18.98;;;17.77;;
47239;SDS011;32978;53.586;10.052;2022-09-23T05:31:08;18.63;;;17.42;;
47239;SDS011;32978;53.586;10.052;2022-09-23T05:36:14;18.75;;;17.55;;
47239;SDS011;32978;53.586;10.052;2022-09-23T05:41:12;17.67;;;16.48;;
47239;SDS011;32978;53.586;10.052;2022-09-23T05:46:10;17.30;;;16.27;;
47239;SDS011;32978;53.586;10.052;2022-09-23T05:51:08;16.08;;;14.88;;
47239;SDS011;32978;53.586;10.052;2022-09-23T05:56:07;14.57;;;13.50;;
47239;SDS011;32978;53.586;10.052;2022-09-23T06:01:14;15.68;;;14.48;;
47239;SDS011;32978;53.586;10.052;2022-09-23T06:06:13;15.45;;;14.32;;
47239;SDS011;32978;53.586;10.052;2022-09-23T06:11:10;16.35;;;15.00;;
47239;SDS011;32978;53.586;10.052;2022-09-23T06:16:11;16.55;;;15.43;;
47239;SDS011;32978;53.586;10.052;2022-09-23T06:21:09;16.52;;;15.05;;
47239;SDS011;32978;53.586;10.052;2022-09-23T06:26:07;15.88;;;14.77;;
47239;SDS011;32978;53.586;10.052;2022-09-23T06:31:04;16.05;;;14.90;;
47239;SDS011;32978;53.586;10.052;2022-09-23T06:36:08;17.15;;;15.95;;
47239;SDS011;32978;53.586;10.052;2022-09-23T06:41:05;18.02;;;16.80;;
47239;SDS011;32978;53.586;10.052;2022-09-23T06:46:03;17.92;;;16.70;;
47239;SDS011;32978;53.586;10.052;2022-09-23T06:51:00;18.13;;;16.92;;
47239;SDS011;32978;53.586;10.052;2022-09-23T06:56:01;20.00;;;18.48;;
47239;SDS011;32978;53.586;10.052;2022-09-23T07:01:01;19.30;;;18.08;;
47239;SDS011;32978;53.586;10.052;2022-09-23T07:05:57;20.02;;;18.63;;
47239;SDS011;32978;53.586;10.052;2022-09-23T07:10:54;20.45;;;18.80;;
47239;SDS011;32978;53.586;10.052;2022-09-23T07:15:52;20.65;;;19.15;;
47239;SDS011;32978;53.586;10.052;2022-09-23T07:20:49;22.20;;;20.80;;
47239;SDS011;32978;53.586;10.052;2022-09-23T07:25:45;19.67;;;18.38;;
47239;SDS011;32978;53.586;10.052;2022-09-23T07:30:41;21.30;;;19.20;;
47239;SDS011;32978;53.586;10.052;2022-09-23T07:35:53;18.10;;;16.60;;
47239;SDS011;32978;53.586;10.052;2022-09-23T07:40:50;16.67;;;15.63;;
47239;SDS011;32978;53.586;10.052;2022-09-23T07:45:46;15.45;;;14.45;;
47239;SDS011;32978;53.586;10.052;2022-09-23T07:50:42;14.90;;;13.70;;
47239;SDS011;32978;53.586;10.052;2022-09-23T07:55:39;15.57;;;14.50;;
47239;SDS011;32978;53.586;10.052;2022-09-23T08:00:35;14.68;;;13.27;;
47239;SDS011;32978;53.586;10.052;2022-09-23T08:05:31;14.18;;;13.18;;
47239;SDS011;32978;53.586;10.052;2022-09-23T08:10:27;12.13;;;11.32;;
47239;SDS011;32978;53.586;10.052;2022-09-23T08:15:24;13.75;;;12.75;;
47239;SDS011;32978;53.586;10.052;2022-09-23T08:20:22;12.50;;;11.52;;
47239;SDS011;32978;53.586;10.052;2022-09-23T08:25:42;13.10;;;12.00;;
47239;SDS011;32978;53.586;10.052;2022-09-23T08:30:42;15.20;;;12.02;;
47239;SDS011;32978;53.586;10.052;2022-09-23T08:35:39;12.75;;;11.88;;
47239;SDS011;32978;53.586;10.052;2022-09-23T08:40:41;12.57;;;11.40;;
47239;SDS011;32978;53.586;10.052;2022-09-23T08:45:38;12.55;;;11.60;;
47239;SDS011;32978;53.586;10.052;2022-09-23T08:50:39;12.43;;;11.52;;
47239;SDS011;32978;53.586;10.052;2022-09-23T08:55:45;11.80;;;10.68;;
47239;SDS011;32978;53.586;10.052;2022-09-23T09:00:42;12.73;;;11.63;;
47239;SDS011;32978;53.586;10.052;2022-09-23T09:05:42;12.75;;;11.80;;
47239;SDS011;32978;53.586;10.052;2022-09-23T09:10:49;11.95;;;10.90;;
47239;SDS011;32978;53.586;10.052;2022-09-23T09:16:31;10.90;;;10.10;;
47239;SDS011;32978;53.586;10.052;2022-09-23T09:21:11;10.27;;;9.38;;
47239;SDS011;32978;53.586;10.052;2022-09-23T09:26:14;9.82;;;9.13;;
47239;SDS011;32978;53.586;10.052;2022-09-23T09:41:18;10.48;;;9.68;;
47239;SDS011;32978;53.586;10.052;2022-09-23T09:46:38;12.35;;;11.13;;
47239;SDS011;32978;53.586;10.052;2022-09-23T09:51:40;9.50;;;8.70;;
47239;SDS011;32978;53.586;10.052;2022-09-23T09:56:37;9.82;;;9.02;;
47239;SDS011;32978;53.586;10.052;2022-09-23T10:01:35;9.73;;;8.93;;
47239;SDS011;32978;53.586;10.052;2022-09-23T10:06:32;8.32;;;7.72;;
47239;SDS011;32978;53.586;10.052;2022-09-23T10:11:29;8.68;;;7.88;;
47239;SDS011;32978;53.586;10.052;2022-09-23T10:16:26;8.77;;;8.07;;
47239;SDS011;32978;53.586;10.052;2022-09-23T10:21:23;9.18;;;8.27;;
47239;SDS011;32978;53.586;10.052;2022-09-23T10:26:27;9.57;;;8.65;;
47239;SDS011;32978;53.586;10.052;2022-09-23T10:31:27;9.15;;;8.45;;
47239;SDS011;32978;53.586;10.052;2022-09-23T10:36:23;9.45;;;8.65;;
47239;SDS011;32978;53.586;10.052;2022-09-23T10:41:25;9.65;;;8.65;;
47239;SDS011;32978;53.586;10.052;2022-09-23T10:46:48;8.40;;;7.80;;
47239;SDS011;32978;53.586;10.052;2022-09-23T10:56:53;8.10;;;7.40;;
47239;SDS011;32978;53.586;10.052;2022-09-23T11:02:11;7.85;;;7.18;;
47239;SDS011;32978;53.586;10.052;2022-09-23T11:12:26;8.02;;;7.38;;
47239;SDS011;32978;53.586;10.052;2022-09-23T11:22:35;7.88;;;7.28;;
47239;SDS011;32978;53.586;10.052;2022-09-23T11:27:50;8.20;;;7.38;;
47239;SDS011;32978;53.586;10.052;2022-09-23T11:48:13;7.70;;;7.10;;
47239;SDS011;32978;53.586;10.052;2022-09-23T11:53:27;7.47;;;6.80;;
47239;SDS011;32978;53.586;10.052;2022-09-23T11:58:27;6.88;;;6.38;;
47239;SDS011;32978;53.586;10.052;2022-09-23T12:08:40;7.57;;;6.85;;
47239;SDS011;32978;53.586;10.052;2022-09-23T12:13:53;7.85;;;7.03;;
47239;SDS011;32978;53.586;10.052;2022-09-23T12:18:55;6.90;;;6.30;;
47239;SDS011;32978;53.586;10.052;2022-09-23T12:29:14;7.57;;;6.97;;
47239;SDS011;32978;53.586;10.052;2022-09-23T12:34:29;7.53;;;6.82;;
47239;SDS011;32978;53.586;10.052;2022-09-23T12:39:29;6.90;;;6.30;;
47239;SDS011;32978;53.586;10.052;2022-09-23T12:44:38;7.47;;;6.75;;
47239;SDS011;32978;53.586;10.052;2022-09-23T12:49:36;7.28;;;6.57;;
47239;SDS011;32978;53.586;10.052;2022-09-23T12:54:32;7.28;;;6.68;;
47239;SDS011;32978;53.586;10.052;2022-09-23T12:59:51;7.95;;;6.35;;
47239;SDS011;32978;53.586;10.052;2022-09-23T13:04:55;7.40;;;6.80;;
47239;SDS011;32978;53.586;10.052;2022-09-23T13:10:21;7.32;;;6.72;;
47239;SDS011;32978;53.586;10.052;2022-09-23T13:15:25;6.38;;;5.88;;
47239;SDS011;32978;53.586;10.052;2022-09-23T13:20:35;7.75;;;7.15;;
47239;SDS011;32978;53.586;10.052;2022-09-23T13:25:34;8.10;;;7.50;;
47239;SDS011;32978;53.586;10.052;2022-09-23T13:30:34;8.20;;;7.50;;
47239;SDS011;32978;53.586;10.052;2022-09-23T13:35:34;8.45;;;7.25;;
47239;SDS011;32978;53.586;10.052;2022-09-23T13:40:32;7.75;;;7.15;;
47239;SDS011;32978;53.586;10.052;2022-09-23T13:45:29;7.70;;;7.10;;
47239;SDS011;32978;53.586;10.052;2022-09-23T13:50:29;7.97;;;7.38;;
47239;SDS011;32978;53.586;10.052;2022-09-23T13:55:31;8.30;;;7.35;;
47239;SDS011;32978;53.586;10.052;2022-09-23T14:00:31;7.80;;;7.20;;
47239;SDS011;32978;53.586;10.052;2022-09-23T14:05:32;7.90;;;7.28;;
47239;SDS011;32978;53.586;10.052;2022-09-23T14:10:29;7.88;;;7.28;;
47239;SDS011;32978;53.586;10.052;2022-09-23T14:15:26;8.45;;;7.80;;
47239;SDS011;32978;53.586;10.052;2022-09-23T14:20:22;7.93;;;7.30;;
47239;SDS011;32978;53.586;10.052;2022-09-23T14:25:19;7.55;;;7.05;;
47239;SDS011;32978;53.586;10.052;2022-09-23T14:30:15;8.25;;;7.50;;
47239;SDS011;32978;53.586;10.052;2022-09-23T14:35:20;7.85;;;7.25;;
47239;SDS011;32978;53.586;10.052;2022-09-23T14:40:20;7.85;;;7.25;;
47239;SDS011;32978;53.586;10.052;2022-09-23T14:45:20;7.85;;;7.28;;
47239;SDS011;32978;53.586;10.052;2022-09-23T14:50:24;8.05;;;7.45;;
47239;SDS011;32978;53.586;10.052;2022-09-23T14:55:42;7.85;;;7.00;;
47239;SDS011;32978;53.586;10.052;2022-09-23T15:00:39;6.63;;;6.13;;
47239;SDS011;32978;53.586;10.052;2022-09-23T15:05:46;6.85;;;6.32;;
47239;SDS011;32978;53.586;10.052;2022-09-23T15:10:43;6.70;;;6.10;;
47239;SDS011;32978;53.586;10.052;2022-09-23T15:15:40;7.32;;;6.63;;
47239;SDS011;32978;53.586;10.052;2022-09-23T15:20:37;7.72;;;7.03;;
47239;SDS011;32978;53.586;10.052;2022-09-23T15:25:42;6.90;;;6.20;;
47239;SDS011;32978;53.586;10.052;2022-09-23T15:30:39;7.00;;;6.40;;
47239;SDS011;32978;53.586;10.052;2022-09-23T15:35:36;9.13;;;5.90;;
47239;SDS011;32978;53.586;10.052;2022-09-23T15:40:35;6.40;;;5.90;;
47239;SDS011;32978;53.586;10.052;2022-09-23T15:45:35;7.00;;;6.45;;
47239;SDS011;32978;53.586;10.052;2022-09-23T15:50:35;7.90;;;7.20;;
47239;SDS011;32978;53.586;10.052;2022-09-23T15:55:32;6.95;;;6.38;;
47239;SDS011;32978;53.586;10.052;2022-09-23T16:00:28;7.22;;;6.53;;
47239;SDS011;32978;53.586;10.052;2022-09-23T16:05:26;6.60;;;6.00;;
47239;SDS011;32978;53.586;10.052;2022-09-23T16:10:25;8.27;;;7.25;;
47239;SDS011;32978;53.586;10.052;2022-09-23T16:15:22;6.93;;;6.32;;
47239;SDS011;32978;53.586;10.052;2022-09-23T16:20:18;6.95;;;6.32;;
47239;SDS011;32978;53.586;10.052;2022-09-23T16:25:15;7.50;;;6.80;;
47239;SDS011;32978;53.586;10.052;2022-09-23T16:30:12;7.10;;;6.40;;
47239;SDS011;32978;53.586;10.052;2022-09-23T16:35:08;7.72;;;7.05;;
47239;SDS011;32978;53.586;10.052;2022-09-23T16:40:05;7.63;;;6.93;;
47239;SDS011;32978;53.586;10.052;2022-09-23T16:45:02;8.98;;;6.82;;
47239;SDS011;32978;53.586;10.052;2022-09-23T16:49:59;7.82;;;7.03;;
47239;SDS011;32978;53.586;10.052;2022-09-23T16:54:55;8.02;;;6.68;;
47239;SDS011;32978;53.586;10.052;2022-09-23T16:59:51;7.90;;;7.10;;
47239;SDS011;32978;53.586;10.052;2022-09-23T17:05:06;7.93;;;7.13;;
47239;SDS011;32978;53.586;10.052;2022-09-23T17:10:03;7.43;;;6.72;;
47239;SDS011;32978;53.586;10.052;2022-09-23T17:15:01;8.15;;;7.38;;
47239;SDS011;32978;53.586;10.052;2022-09-23T17:19:58;8.18;;;7.43;;
47239;SDS011;32978;53.586;10.052;2022-09-23T17:24:54;8.65;;;7.85;;
47239;SDS011;32978;53.586;10.052;2022-09-23T17:29:50;8.27;;;7.47;;
47239;SDS011;32978;53.586;10.052;2022-09-23T17:34:47;8.88;;;8.02;;
47239;SDS011;32978;53.586;10.052;2022-09-23T17:39:43;8.55;;;7.82;;
47239;SDS011;32978;53.586;10.052;2022-09-23T17:44:39;8.55;;;7.65;;
47239;SDS011;32978;53.586;10.052;2022-09-23T17:49:36;9.20;;;8.30;;
47239;SDS011;32978;53.586;10.052;2022-09-23T17:54:32;8.90;;;7.97;;
47239;SDS011;32978;53.586;10.052;2022-09-23T17:59:28;8.85;;;8.02;;
47239;SDS011;32978;53.586;10.052;2022-09-23T18:04:24;9.15;;;8.25;;
47239;SDS011;32978;53.586;10.052;2022-09-23T18:09:20;11.18;;;9.10;;
47239;SDS011;32978;53.586;10.052;2022-09-23T18:14:18;9.52;;;8.73;;
47239;SDS011;32978;53.586;10.052;2022-09-23T18:19:15;9.35;;;8.45;;
47239;SDS011;32978;53.586;10.052;2022-09-23T18:24:12;9.30;;;8.40;;
47239;SDS011;32978;53.586;10.052;2022-09-23T18:29:28;9.65;;;8.75;;
47239;SDS011;32978;53.586;10.052;2022-09-23T18:34:24;9.85;;;8.98;;
47239;SDS011;32978;53.586;10.052;2022-09-23T18:39:20;9.82;;;8.93;;
47239;SDS011;32978;53.586;10.052;2022-09-23T18:44:17;10.10;;;9.30;;
47239;SDS011;32978;53.586;10.052;2022-09-23T18:49:14;11.02;;;9.65;;
47239;SDS011;32978;53.586;10.052;2022-09-23T18:54:29;10.63;;;9.73;;
47239;SDS011;32978;53.586;10.052;2022-09-23T18:59:26;11.70;;;10.50;;
47239;SDS011;32978;53.586;10.052;2022-09-23T19:04:24;12.88;;;11.18;;
47239;SDS011;32978;53.586;10.052;2022-09-23T19:09:21;10.07;;;9.13;;
47239;SDS011;32978;53.586;10.052;2022-09-23T19:14:17;11.40;;;10.13;;
47239;SDS011;32978;53.586;10.052;2022-09-23T19:19:14;11.45;;;9.98;;
47239;SDS011;32978;53.586;10.052;2022-09-23T19:24:10;10.40;;;9.50;;
47239;SDS011;32978;53.586;10.052;2022-09-23T19:29:13;10.60;;;9.70;;
47239;SDS011;32978;53.586;10.052;2022-09-23T19:34:13;10.93;;;9.88;;
47239;SDS011;32978;53.586;10.052;2022-09-23T19:39:14;11.52;;;10.52;;
47239;SDS011;32978;53.586;10.052;2022-09-23T19:44:10;11.90;;;9.68;;
47239;SDS011;32978;53.586;10.052;2022-09-23T19:49:07;10.15;;;9.23;;
47239;SDS011;32978;53.586;10.052;2022-09-23T19:54:04;13.30;;;9.52;;
47239;SDS011;32978;53.586;10.052;2022-09-23T19:59:00;10.48;;;9.57;;
47239;SDS011;32978;53.586;10.052;2022-09-23T20:03:58;10.20;;;9.35;;
47239;SDS011;32978;53.586;10.052;2022-09-23T20:08:54;10.93;;;9.75;;
47239;SDS011;32978;53.586;10.052;2022-09-23T20:13:53;11.48;;;9.57;;
47239;SDS011;32978;53.586;10.052;2022-09-23T20:18:56;12.25;;;10.95;;
47239;SDS011;32978;53.586;10.052;2022-09-23T20:23:54;11.65;;;10.65;;
47239;SDS011;32978;53.586;10.052;2022-09-23T20:28:51;13.93;;;11.63;;
47239;SDS011;32978;53.586;10.052;2022-09-23T20:33:51;12.13;;;10.57;;
47239;SDS011;32978;53.586;10.052;2022-09-23T20:38:53;14.63;;;12.52;;
47239;SDS011;32978;53.586;10.052;2022-09-23T20:43:53;12.15;;;10.38;;
47239;SDS011;32978;53.586;10.052;2022-09-23T20:48:49;13.10;;;11.65;;
47239;SDS011;32978;53.586;10.052;2022-09-23T20:53:49;12.95;;;11.70;;
47239;SDS011;32978;53.586;10.052;2022-09-23T20:58:48;13.93;;;12.63;;
47239;SDS011;32978;53.586;10.052;2022-09-23T21:03:46;14.80;;;13.35;;
47239;SDS011;32978;53.586;10.052;2022-09-23T21:08:42;15.75;;;14.30;;
47239;SDS011;32978;53.586;10.052;2022-09-23T21:13:43;18.17;;;16.50;;
47239;SDS011;32978;53.586;10.052;2022-09-23T21:18:40;18.65;;;16.92;;
47239;SDS011;32978;53.586;10.052;2022-09-23T21:23:37;18.48;;;16.77;;
47239;SDS011;32978;53.586;10.052;2022-09-23T21:28:40;19.75;;;18.15;;
47239;SDS011;32978;53.586;10.052;2022-09-23T21:33:37;19.27;;;17.55;;
47239;SDS011;32978;53.586;10.052;2022-09-23T21:38:36;19.42;;;17.83;;
47239;SDS011;32978;53.586;10.052;2022-09-23T21:43:33;19.50;;;17.83;;
47239;SDS011;32978;53.586;10.052;2022-09-23T21:48:30;20.17;;;18.48;;
47239;SDS011;32978;53.586;10.052;2022-09-23T21:53:27;21.00;;;19.30;;
47239;SDS011;32978;53.586;10.052;2022-09-23T21:58:24;20.83;;;19.13;;
47239;SDS011;32978;53.586;10.052;2022-09-23T22:03:21;23.30;;;21.60;;
47239;SDS011;32978;53.586;10.052;2022-09-23T22:08:18;23.95;;;21.95;;
47239;SDS011;32978;53.586;10.052;2022-09-23T22:13:14;24.70;;;22.80;;
47239;SDS011;32978;53.586;10.052;2022-09-23T22:18:11;24.15;;;22.23;;
47239;SDS011;32978;53.586;10.052;2022-09-23T22:23:07;23.95;;;22.02;;
47239;SDS011;32978;53.586;10.052;2022-09-23T22:28:03;29.25;;;27.15;;
47239;SDS011;32978;53.586;10.052;2022-09-23T22:33:18;27.10;;;25.00;;
47239;SDS011;32978;53.586;10.052;2022-09-23T22:38:14;27.48;;;25.58;;
47239;SDS011;32978;53.586;10.052;2022-09-23T22:43:11;27.05;;;25.08;;
47239;SDS011;32978;53.586;10.052;2022-09-23T22:48:07;29.45;;;27.40;;
47239;SDS011;32978;53.586;10.052;2022-09-23T22:53:03;28.67;;;26.67;;
47239;SDS011;32978;53.586;10.052;2022-09-23T22:58:00;29.33;;;27.42;;
47239;SDS011;32978;53.586;10.052;2022-09-23T23:03:16;30.80;;;28.55;;
47239;SDS011;32978;53.586;10.052;2022-09-23T23:08:15;29.27;;;27.27;;
47239;SDS011;32978;53.586;10.052;2022-09-23T23:13:12;31.02;;;28.92;;
47239;SDS011;32978;53.586;10.052;2022-09-23T23:18:08;30.95;;;28.58;;
47239;SDS011;32978;53.586;10.052;2022-09-23T23:23:04;29.58;;;27.58;;
47239;SDS011;32978;53.586;10.052;2022-09-23T23:28:01;31.42;;;29.35;;
47239;SDS011;32978;53.586;10.052;2022-09-23T23:32:57;33.25;;;31.05;;
47239;SDS011;32978;53.586;10.052;2022-09-23T23:37:53;33.63;;;31.50;;
47239;SDS011;32978;53.586;10.052;2022-09-23T23:42:50;36.30;;;33.60;;
47239;SDS011;32978;53.586;10.052;2022-09-23T23:47:46;31.35;;;29.15;;
47239;SDS011;32978;53.586;10.052;2022-09-23T23:52:42;28.75;;;26.65;;
47239;SDS011;32978;53.586;10.052;2022-09-23T23:57:38;30.75;;;28.80;;
